Time;durP1;ratioP1;P1;durP2;ratioP2;P2;SDS_P1;SDS_P2;PMS_P1;PMS_P2;Temp;Humidity;BMP_temperature;BMP_pressure;BME280_temperature;BME280_humidity;BME280_pressure;Samples;Min_cycle;Max_cycle;Signal;HPM_P1;HPM_P2
2022/03/07 00:01:36;;;;;;;;;20.50;20.50;;;;;;;;5110600;27;28256;-86
2022/03/07 00:04:02;;;;;;;;;24.00;24.00;;;;;;;;5106747;27;28543;-88
2022/03/07 00:06:27;;;;;;;;;20.00;20.00;;;;;;;;5090225;27;28480;-88
2022/03/07 00:08:53;;;;;;;;;20.00;20.00;;;;;;;;5088596;28;31227;-88
2022/03/07 00:11:19;;;;;;;;;21.25;21.25;;;;;;;;5088504;28;29867;-88
2022/03/07 00:13:45;;;;;;;;;22.50;22.00;;;;;;;;5089938;27;28441;-88
2022/03/07 00:16:10;;;;;;;;;28.00;25.00;;;;;;;;5087363;27;28418;-87
2022/03/07 00:18:36;;;;;;;;;21.00;19.25;;;;;;;;5109441;27;28475;-86
2022/03/07 00:21:02;;;;;;;;;23.33;23.33;;;;;;;;5109764;27;28341;-88
2022/03/07 00:23:27;;;;;;;;;20.20;20.20;;;;;;;;5110369;27;28391;-88
2022/03/07 00:25:52;;;;;;;;;21.25;21.25;;;;;;;;5110248;27;27895;-87
2022/03/07 00:28:18;;;;;;;;;19.00;19.00;;;;;;;;5109950;27;28275;-88
2022/03/07 00:30:43;;;;;;;;;19.00;19.00;;;;;;;;5109421;27;28491;-87
2022/03/07 00:33:08;;;;;;;;;22.00;20.00;;;;;;;;5110171;27;28349;-87
2022/03/07 00:35:33;;;;;;;;;20.33;20.33;;;;;;;;5110423;27;28487;-87
2022/03/07 00:37:59;;;;;;;;;20.50;17.50;;;;;;;;5109008;27;28545;-88
2022/03/07 00:40:24;;;;;;;;;18.50;18.50;;;;;;;;5109988;27;28324;-87
2022/03/07 00:42:49;;;;;;;;;20.75;18.25;;;;;;;;5109040;27;28507;-87
2022/03/07 00:45:15;;;;;;;;;21.00;21.00;;;;;;;;5106335;27;28460;-87
2022/03/07 00:47:40;;;;;;;;;20.75;20.00;;;;;;;;5089593;28;29117;-88
2022/03/07 00:50:05;;;;;;;;;24.00;21.00;;;;;;;;5088136;28;28848;-87
2022/03/07 00:52:31;;;;;;;;;29.20;23.60;;;;;;;;5088431;28;28308;-87
2022/03/07 00:54:56;;;;;;;;;24.00;21.50;;;;;;;;5095100;27;28487;-87
2022/03/07 00:57:21;;;;;;;;;22.00;20.00;;;;;;;;5109648;27;28388;-86
2022/03/07 00:59:46;;;;;;;;;24.00;24.00;;;;;;;;5109861;27;28377;-87
2022/03/07 01:02:12;;;;;;;;;26.25;23.00;;;;;;;;5109885;27;27905;-86
2022/03/07 01:04:37;;;;;;;;;20.75;20.75;;;;;;;;5108704;27;28414;-87
2022/03/07 01:07:03;;;;;;;;;22.50;20.75;;;;;;;;5109516;27;28813;-86
2022/03/07 01:09:28;;;;;;;;;21.00;19.75;;;;;;;;5105646;27;28393;-87
2022/03/07 01:11:53;;;;;;;;;20.00;17.00;;;;;;;;5089496;28;28755;-88
2022/03/07 01:14:19;;;;;;;;;20.25;20.25;;;;;;;;5089458;28;28384;-87
2022/03/07 01:16:44;;;;;;;;;28.00;20.00;;;;;;;;5087362;28;28674;-87
2022/03/07 01:19:09;;;;;;;;;21.75;20.00;;;;;;;;5089075;28;28554;-88
2022/03/07 01:21:34;;;;;;;;;20.75;20.75;;;;;;;;5093292;27;28550;-88
2022/03/07 01:24:00;;;;;;;;;20.67;17.67;;;;;;;;5088229;28;28452;-88
2022/03/07 01:26:25;;;;;;;;;25.00;22.67;;;;;;;;5089034;28;28404;-89
2022/03/07 01:28:50;;;;;;;;;21.25;21.25;;;;;;;;5089142;28;28776;-87
2022/03/07 01:31:15;;;;;;;;;25.50;23.75;;;;;;;;5088806;28;28350;-87
2022/03/07 01:33:41;;;;;;;;;28.67;24.67;;;;;;;;5089057;28;28401;-87
2022/03/07 01:36:06;;;;;;;;;20.25;20.00;;;;;;;;5100038;27;28305;-87
2022/03/07 01:38:31;;;;;;;;;20.00;20.00;;;;;;;;5109453;27;28322;-88
2022/03/07 01:40:57;;;;;;;;;20.25;19.25;;;;;;;;5100398;27;28416;-88
2022/03/07 01:43:23;;;;;;;;;22.50;22.00;;;;;;;;5089044;27;28302;-87
2022/03/07 01:45:48;;;;;;;;;23.25;21.50;;;;;;;;5088839;27;28518;-88
2022/03/07 01:48:13;;;;;;;;;21.50;19.25;;;;;;;;5089247;27;28241;-88
2022/03/07 01:50:39;;;;;;;;;19.00;19.00;;;;;;;;5093471;27;28328;-88
2022/03/07 01:53:04;;;;;;;;;24.33;20.00;;;;;;;;5105621;27;28424;-88
2022/03/07 01:55:29;;;;;;;;;20.67;19.00;;;;;;;;5112654;27;28499;-89
2022/03/07 01:57:55;;;;;;;;;20.00;20.00;;;;;;;;5112776;27;28530;-87
2022/03/07 02:00:21;;;;;;;;;25.00;21.00;;;;;;;;5112580;27;28472;-89
2022/03/07 02:02:47;;;;;;;;;24.00;23.00;;;;;;;;5111621;27;28505;-88
2022/03/07 02:05:12;;;;;;;;;20.00;20.00;;;;;;;;5111496;27;29694;-87
2022/03/07 02:07:38;;;;;;;;;23.50;23.50;;;;;;;;5112458;27;28483;-88
2022/03/07 02:10:04;;;;;;;;;18.33;18.33;;;;;;;;5111104;27;28377;-87
2022/03/07 02:12:29;;;;;;;;;21.67;21.67;;;;;;;;5111373;27;28373;-86
2022/03/07 02:14:55;;;;;;;;;20.25;20.25;;;;;;;;5108889;27;30781;-87
2022/03/07 02:17:20;;;;;;;;;19.00;19.00;;;;;;;;5093601;27;27999;-87
2022/03/07 02:19:45;;;;;;;;;22.50;22.50;;;;;;;;5091949;28;28825;-88
2022/03/07 02:22:10;;;;;;;;;25.50;24.00;;;;;;;;5091912;28;28480;-87
2022/03/07 02:24:36;;;;;;;;;22.33;20.00;;;;;;;;5091824;28;29141;-87
2022/03/07 02:27:03;;;;;;;;;24.00;20.00;;;;;;;;5091679;27;28772;-87
2022/03/07 02:29:29;;;;;;;;;20.25;18.00;;;;;;;;5091871;28;27824;-87
2022/03/07 02:31:55;;;;;;;;;24.00;19.25;;;;;;;;5091679;27;28757;-87
2022/03/07 02:34:20;;;;;;;;;19.25;19.25;;;;;;;;5090070;27;30743;-88
2022/03/07 02:36:45;;;;;;;;;20.00;20.00;;;;;;;;5111872;27;28374;-88
2022/03/07 02:39:11;;;;;;;;;28.67;23.00;;;;;;;;5112000;27;28246;-88
2022/03/07 02:41:37;;;;;;;;;22.00;22.00;;;;;;;;5112063;27;28506;-88
2022/03/07 02:44:03;;;;;;;;;20.80;18.40;;;;;;;;5111979;27;28534;-88
2022/03/07 02:46:28;;;;;;;;;22.25;22.25;;;;;;;;5111887;27;28422;-87
2022/03/07 02:48:53;;;;;;;;;24.00;22.67;;;;;;;;5111458;27;28751;-88
2022/03/07 02:51:18;;;;;;;;;23.25;19.25;;;;;;;;5112168;27;28806;-87
2022/03/07 02:53:44;;;;;;;;;23.33;23.00;;;;;;;;5112093;27;28436;-89
2022/03/07 02:56:09;;;;;;;;;23.67;22.67;;;;;;;;5094168;27;28704;-87
2022/03/07 02:58:34;;;;;;;;;23.00;23.00;;;;;;;;5091304;27;28692;-88
2022/03/07 03:00:59;;;;;;;;;19.67;19.67;;;;;;;;5096969;27;28405;-90
2022/03/07 03:03:25;;;;;;;;;22.25;22.25;;;;;;;;5111854;27;29348;-88
2022/03/07 03:05:54;;;;;;;;;22.25;22.25;;;;;;;;5110492;27;29387;-89
2022/03/07 03:08:19;;;;;;;;;23.00;23.00;;;;;;;;5104017;27;28468;-89
2022/03/07 03:10:44;;;;;;;;;20.50;19.00;;;;;;;;5091310;28;28223;-88
2022/03/07 03:13:10;;;;;;;;;23.00;20.00;;;;;;;;5091189;28;28472;-88
2022/03/07 03:15:35;;;;;;;;;22.00;20.00;;;;;;;;5098870;27;28274;-90
2022/03/07 03:18:00;;;;;;;;;23.33;22.00;;;;;;;;5111733;27;28683;-90
2022/03/07 03:20:25;;;;;;;;;21.50;19.25;;;;;;;;5110604;27;28453;-89
2022/03/07 03:22:51;;;;;;;;;23.00;22.00;;;;;;;;5111608;27;28427;-88
2022/03/07 03:25:16;;;;;;;;;23.50;22.75;;;;;;;;5111465;27;28317;-88
2022/03/07 03:27:42;;;;;;;;;19.75;18.25;;;;;;;;5111201;27;28513;-90
2022/03/07 03:30:08;;;;;;;;;23.60;20.80;;;;;;;;5110357;27;28453;-89
2022/03/07 03:32:34;;;;;;;;;25.00;24.50;;;;;;;;5094902;27;28544;-88
2022/03/07 03:34:59;;;;;;;;;30.50;27.25;;;;;;;;5090786;28;27903;-88
2022/03/07 03:37:24;;;;;;;;;27.00;23.00;;;;;;;;5091089;27;28321;-88
2022/03/07 03:39:50;;;;;;;;;26.00;22.00;;;;;;;;5092625;27;28101;-87
2022/03/07 03:42:15;;;;;;;;;26.00;22.50;;;;;;;;5111236;27;28547;-87
2022/03/07 03:44:40;;;;;;;;;33.67;32.33;;;;;;;;5091667;27;28407;-88
2022/03/07 03:47:06;;;;;;;;;30.50;26.00;;;;;;;;5093099;27;28498;-87
2022/03/07 03:49:31;;;;;;;;;24.00;24.00;;;;;;;;5109601;27;28611;-87
2022/03/07 03:51:57;;;;;;;;;26.75;25.50;;;;;;;;5110867;27;28404;-87
2022/03/07 03:54:22;;;;;;;;;26.00;26.00;;;;;;;;5111104;27;28560;-87
2022/03/07 03:56:48;;;;;;;;;27.25;25.75;;;;;;;;5111196;27;28236;-87
2022/03/07 03:59:13;;;;;;;;;22.00;22.00;;;;;;;;5111044;27;28756;-87
2022/03/07 04:01:39;;;;;;;;;24.00;22.00;;;;;;;;5110432;27;28626;-87
2022/03/07 04:04:04;;;;;;;;;30.75;27.00;;;;;;;;5110890;27;28318;-87
2022/03/07 04:06:29;;;;;;;;;24.67;24.67;;;;;;;;5110369;27;28506;-87
2022/03/07 04:08:58;;;;;;;;;24.00;24.00;;;;;;;;5110803;27;28419;-87
2022/03/07 04:11:23;;;;;;;;;29.00;27.00;;;;;;;;5109340;27;28462;-88
2022/03/07 04:13:48;;;;;;;;;29.33;27.00;;;;;;;;5110880;27;28511;-87
2022/03/07 04:16:15;;;;;;;;;23.67;23.67;;;;;;;;5110526;27;28489;-87
2022/03/07 04:18:40;;;;;;;;;24.50;24.50;;;;;;;;5110644;27;28423;-88
2022/03/07 04:21:05;;;;;;;;;28.00;25.33;;;;;;;;5108168;27;30360;-88
2022/03/07 04:23:31;;;;;;;;;26.00;23.25;;;;;;;;5110661;27;28589;-89
2022/03/07 04:25:56;;;;;;;;;27.25;27.25;;;;;;;;5099831;27;28390;-89
2022/03/07 04:28:21;;;;;;;;;27.00;25.50;;;;;;;;5089968;27;28282;-89
2022/03/07 04:30:46;;;;;;;;;23.67;23.67;;;;;;;;5090031;28;28306;-88
2022/03/07 04:33:12;;;;;;;;;31.00;27.33;;;;;;;;5089646;28;28436;-88
2022/03/07 04:35:37;;;;;;;;;27.75;26.75;;;;;;;;5090037;28;28236;-88
2022/03/07 04:38:02;;;;;;;;;30.67;25.00;;;;;;;;5089647;28;28545;-87
2022/03/07 04:40:28;;;;;;;;;22.75;22.00;;;;;;;;5089505;27;29250;-88
2022/03/07 04:42:55;;;;;;;;;22.00;19.00;;;;;;;;5089736;27;28264;-87
2022/03/07 04:45:21;;;;;;;;;26.75;26.75;;;;;;;;5089548;28;28397;-88
2022/03/07 04:47:47;;;;;;;;;25.33;25.33;;;;;;;;5088170;28;27859;-87
2022/03/07 04:50:13;;;;;;;;;24.50;24.50;;;;;;;;5089703;28;28756;-86
2022/03/07 04:52:38;;;;;;;;;26.50;26.50;;;;;;;;5089480;28;28456;-88
2022/03/07 04:55:04;;;;;;;;;24.50;24.50;;;;;;;;5100395;27;27975;-86
2022/03/07 04:57:29;;;;;;;;;20.00;20.00;;;;;;;;5110200;27;28383;-87
2022/03/07 04:59:54;;;;;;;;;26.75;23.00;;;;;;;;5109316;27;29282;-87
2022/03/07 05:02:20;;;;;;;;;28.00;24.00;;;;;;;;5108280;27;29386;-87
2022/03/07 05:04:45;;;;;;;;;26.67;26.67;;;;;;;;5109107;27;28509;-87
2022/03/07 05:07:10;;;;;;;;;36.00;29.00;;;;;;;;5109853;27;28470;-87
2022/03/07 05:09:35;;;;;;;;;25.50;25.50;;;;;;;;5109629;27;28292;-88
2022/03/07 05:12:01;;;;;;;;;31.00;23.00;;;;;;;;5109858;27;28471;-88
2022/03/07 05:14:26;;;;;;;;;24.00;22.50;;;;;;;;5097477;27;28441;-87
2022/03/07 05:16:52;;;;;;;;;26.25;24.00;;;;;;;;5089097;28;28377;-87
2022/03/07 05:19:17;;;;;;;;;24.00;24.00;;;;;;;;5087644;27;28427;-88
2022/03/07 05:21:42;;;;;;;;;28.50;28.00;;;;;;;;5089057;27;28623;-87
2022/03/07 05:24:09;;;;;;;;;32.00;27.00;;;;;;;;5088838;28;28314;-89
2022/03/07 05:26:35;;;;;;;;;31.40;22.60;;;;;;;;5089250;27;28708;-88
2022/03/07 05:29:00;;;;;;;;;27.80;24.60;;;;;;;;5089164;27;28357;-89
2022/03/07 05:31:25;;;;;;;;;27.00;24.00;;;;;;;;5089130;28;28269;-88
2022/03/07 05:33:51;;;;;;;;;34.33;29.00;;;;;;;;5088108;27;28345;-88
2022/03/07 05:36:16;;;;;;;;;27.00;24.75;;;;;;;;5109692;27;28401;-88
2022/03/07 05:38:41;;;;;;;;;27.33;26.00;;;;;;;;5099149;27;30185;-88
2022/03/07 05:41:07;;;;;;;;;26.00;25.00;;;;;;;;5094682;27;28322;-88
2022/03/07 05:43:34;;;;;;;;;29.50;22.25;;;;;;;;5096236;27;28554;-88
2022/03/07 05:45:59;;;;;;;;;28.67;26.00;;;;;;;;5109418;27;28354;-87
2022/03/07 05:48:24;;;;;;;;;31.25;27.50;;;;;;;;5108933;27;28838;-88
2022/03/07 05:50:50;;;;;;;;;30.00;27.00;;;;;;;;5108074;27;29510;-86
2022/03/07 05:53:19;;;;;;;;;30.00;25.67;;;;;;;;5109554;27;28384;-87
2022/03/07 05:55:44;;;;;;;;;25.50;25.00;;;;;;;;5109283;27;28331;-87
2022/03/07 05:58:09;;;;;;;;;25.25;22.75;;;;;;;;5107278;27;30582;-87
2022/03/07 06:00:35;;;;;;;;;31.00;29.00;;;;;;;;5109273;27;28661;-87
2022/03/07 06:03:00;;;;;;;;;30.50;27.50;;;;;;;;5108907;27;28448;-88
2022/03/07 06:05:25;;;;;;;;;28.33;26.00;;;;;;;;5110087;27;27815;-88
2022/03/07 06:07:51;;;;;;;;;30.50;26.00;;;;;;;;5109638;27;28255;-91
2022/03/07 06:10:16;;;;;;;;;33.33;30.00;;;;;;;;5110143;27;28438;-86
2022/03/07 06:12:41;;;;;;;;;30.50;24.75;;;;;;;;5109004;27;28454;-87
2022/03/07 06:15:07;;;;;;;;;25.00;25.00;;;;;;;;5108868;27;28443;-83
2022/03/07 06:17:33;;;;;;;;;31.50;29.00;;;;;;;;5108706;27;28650;-84
2022/03/07 06:19:59;;;;;;;;;31.80;29.60;;;;;;;;5107465;27;28466;-86
2022/03/07 06:22:24;;;;;;;;;25.67;25.67;;;;;;;;5102208;27;28656;-85
2022/03/07 06:24:49;;;;;;;;;28.75;25.25;;;;;;;;5088038;27;28389;-88
2022/03/07 06:27:15;;;;;;;;;25.00;25.00;;;;;;;;5088346;28;29557;-88
2022/03/07 06:29:40;;;;;;;;;33.75;28.50;;;;;;;;5088992;28;28432;-88
2022/03/07 06:32:06;;;;;;;;;27.00;25.25;;;;;;;;5088297;27;28420;-86
2022/03/07 06:34:34;;;;;;;;;26.00;23.00;;;;;;;;5089045;28;27765;-87
2022/03/07 06:37:00;;;;;;;;;36.00;29.20;;;;;;;;5090552;28;29383;-87
2022/03/07 06:39:27;;;;;;;;;30.50;25.50;;;;;;;;5091653;28;28460;-89
2022/03/07 06:41:52;;;;;;;;;33.00;30.67;;;;;;;;5091841;28;28465;-89
2022/03/07 06:44:17;;;;;;;;;29.00;23.50;;;;;;;;5091918;28;28520;-86
2022/03/07 06:46:42;;;;;;;;;30.00;26.67;;;;;;;;5091697;27;29423;-87
2022/03/07 06:49:08;;;;;;;;;27.00;27.00;;;;;;;;5091497;28;28364;-89
2022/03/07 06:51:33;;;;;;;;;32.33;28.33;;;;;;;;5104624;27;28497;-87
2022/03/07 06:53:58;;;;;;;;;28.33;28.00;;;;;;;;5112187;27;28547;-86
2022/03/07 06:56:24;;;;;;;;;30.25;30.25;;;;;;;;5111994;27;28728;-87
2022/03/07 06:58:49;;;;;;;;;27.75;26.00;;;;;;;;5112018;27;28285;-85
2022/03/07 07:01:14;;;;;;;;;28.00;28.00;;;;;;;;5095321;27;28372;-86
2022/03/07 07:03:39;;;;;;;;;28.67;28.67;;;;;;;;5090988;28;27944;-84
2022/03/07 07:06:05;;;;;;;;;28.00;26.50;;;;;;;;5091080;28;28441;-85
2022/03/07 07:08:30;;;;;;;;;28.25;27.00;;;;;;;;5091215;28;28517;-85
2022/03/07 07:10:55;;;;;;;;;33.33;32.67;;;;;;;;5090997;28;28357;-85
2022/03/07 07:13:20;;;;;;;;;32.50;31.25;;;;;;;;5090075;27;28472;-90
2022/03/07 07:15:54;;;;;;;;;36.00;26.50;;;;;;;;5089629;27;29826;-86
2022/03/07 07:18:19;;;;;;;;;28.25;28.25;;;;;;;;5105409;27;28344;-86
2022/03/07 07:20:44;;;;;;;;;27.25;27.25;;;;;;;;5111449;27;27885;-88
2022/03/07 07:23:09;;;;;;;;;32.25;28.25;;;;;;;;5111458;27;28346;-87
2022/03/07 07:25:35;;;;;;;;;25.25;25.25;;;;;;;;5111405;27;28479;-87
2022/03/07 07:28:00;;;;;;;;;28.00;28.00;;;;;;;;5100040;27;28369;-87
2022/03/07 07:30:25;;;;;;;;;27.33;27.33;;;;;;;;5106615;27;28314;-86
2022/03/07 07:32:51;;;;;;;;;34.67;34.67;;;;;;;;5111682;27;28383;-86
2022/03/07 07:35:16;;;;;;;;;30.50;28.00;;;;;;;;5111249;27;29659;-85
2022/03/07 07:37:41;;;;;;;;;31.00;28.33;;;;;;;;5111494;27;28591;-86
2022/03/07 07:40:07;;;;;;;;;27.00;27.00;;;;;;;;5111384;27;28292;-84
2022/03/07 07:42:33;;;;;;;;;30.50;27.50;;;;;;;;5100386;27;28476;-83
2022/03/07 07:44:58;;;;;;;;;30.50;26.50;;;;;;;;5090527;28;28379;-83
2022/03/07 07:47:23;;;;;;;;;29.00;29.00;;;;;;;;5090145;28;28394;-84
2022/03/07 07:49:48;;;;;;;;;29.00;24.00;;;;;;;;5102931;27;28287;-83
2022/03/07 07:52:13;;;;;;;;;27.00;27.00;;;;;;;;5131767;27;28235;-84
2022/03/07 07:54:39;;;;;;;;;26.50;26.50;;;;;;;;5124707;27;28409;-84
2022/03/07 07:57:07;;;;;;;;;29.67;29.67;;;;;;;;5111035;27;28270;-84
2022/03/07 07:59:32;;;;;;;;;30.75;26.25;;;;;;;;5110620;27;28544;-84
2022/03/07 08:01:57;;;;;;;;;31.00;30.00;;;;;;;;5111168;27;28338;-84
2022/03/07 08:04:22;;;;;;;;;29.00;24.50;;;;;;;;5111348;27;28508;-84
2022/03/07 08:06:48;;;;;;;;;25.33;25.33;;;;;;;;5111494;27;28838;-84
2022/03/07 08:09:13;;;;;;;;;24.00;24.00;;;;;;;;5110924;27;28422;-85
2022/03/07 08:11:38;;;;;;;;;27.67;27.67;;;;;;;;5111799;27;28433;-85
2022/03/07 08:14:03;;;;;;;;;27.33;26.33;;;;;;;;5111815;27;28462;-85
2022/03/07 08:16:29;;;;;;;;;26.00;23.25;;;;;;;;5110177;27;28387;-85
2022/03/07 08:18:54;;;;;;;;;30.00;23.50;;;;;;;;5111837;27;28360;-85
2022/03/07 08:21:25;;;;;;;;;25.75;23.75;;;;;;;;5118310;27;28301;-85
2022/03/07 08:23:51;;;;;;;;;23.75;19.25;;;;;;;;5130874;27;29157;-85
2022/03/07 08:26:16;;;;;;;;;24.00;21.50;;;;;;;;5131166;27;28360;-85
2022/03/07 08:28:41;;;;;;;;;21.00;21.00;;;;;;;;5130881;27;28482;-85
2022/03/07 08:31:06;;;;;;;;;29.00;28.00;;;;;;;;5121728;27;28506;-85
2022/03/07 08:33:32;;;;;;;;;25.25;25.25;;;;;;;;5110329;27;29508;-85
2022/03/07 08:35:57;;;;;;;;;36.50;28.75;;;;;;;;5110131;27;28460;-84
2022/03/07 08:38:22;;;;;;;;;28.50;26.00;;;;;;;;5110192;27;28503;-84
2022/03/07 08:40:48;;;;;;;;;25.00;23.00;;;;;;;;5110213;27;28475;-85
2022/03/07 08:43:13;;;;;;;;;22.50;22.50;;;;;;;;5109923;27;28521;-86
2022/03/07 08:45:38;;;;;;;;;24.00;22.00;;;;;;;;5122223;27;28412;-85
2022/03/07 08:48:03;;;;;;;;;27.67;27.67;;;;;;;;5110080;27;28379;-85
2022/03/07 08:50:29;;;;;;;;;20.33;20.33;;;;;;;;5110198;27;28456;-85
2022/03/07 08:52:54;;;;;;;;;23.25;23.25;;;;;;;;5109694;27;28481;-86
2022/03/07 08:55:19;;;;;;;;;27.50;21.50;;;;;;;;5109800;27;28581;-85
2022/03/07 08:57:45;;;;;;;;;23.00;22.00;;;;;;;;5109877;27;28335;-87
2022/03/07 09:00:11;;;;;;;;;26.00;24.00;;;;;;;;5097085;27;28621;-86
2022/03/07 09:02:36;;;;;;;;;26.50;26.50;;;;;;;;5109756;27;28811;-86
2022/03/07 09:05:02;;;;;;;;;21.75;21.75;;;;;;;;5109605;27;28398;-87
2022/03/07 09:07:28;;;;;;;;;18.25;18.25;;;;;;;;5109723;27;28326;-85
2022/03/07 09:09:57;;;;;;;;;23.80;20.40;;;;;;;;5109938;27;28620;-86
2022/03/07 09:12:27;;;;;;;;;18.80;17.20;;;;;;;;5109408;27;28513;-86
2022/03/07 09:15:02;;;;;;;;;22.00;18.40;;;;;;;;5105449;27;28280;-85
2022/03/07 09:17:28;;;;;;;;;15.20;14.00;;;;;;;;5109570;27;28313;-85
2022/03/07 09:19:58;;;;;;;;;18.75;18.75;;;;;;;;5109403;27;27992;-86
2022/03/07 09:22:24;;;;;;;;;18.00;18.00;;;;;;;;5109405;27;28453;-85
2022/03/07 09:24:49;;;;;;;;;18.40;18.40;;;;;;;;5095417;27;28410;-85
2022/03/07 09:27:14;;;;;;;;;21.00;21.00;;;;;;;;5109435;27;28397;-86
2022/03/07 09:29:40;;;;;;;;;24.67;20.67;;;;;;;;5109466;27;28543;-85
2022/03/07 09:32:05;;;;;;;;;21.00;20.00;;;;;;;;5095474;27;28491;-86
2022/03/07 09:34:31;;;;;;;;;18.75;18.75;;;;;;;;5096845;27;28556;-86
2022/03/07 09:36:57;;;;;;;;;21.50;21.50;;;;;;;;5096241;27;28383;-86
2022/03/07 09:39:22;;;;;;;;;24.75;22.75;;;;;;;;5090142;27;28417;-86
2022/03/07 09:41:47;;;;;;;;;21.50;19.25;;;;;;;;5097734;27;28676;-86
2022/03/07 09:44:12;;;;;;;;;19.50;19.50;;;;;;;;5089803;27;28271;-88
2022/03/07 09:46:37;;;;;;;;;23.33;23.33;;;;;;;;5093697;27;28733;-85
2022/03/07 09:49:03;;;;;;;;;22.50;21.00;;;;;;;;5089184;27;28406;-86
2022/03/07 09:51:29;;;;;;;;;22.75;21.50;;;;;;;;5104289;27;28466;-85
2022/03/07 09:53:54;;;;;;;;;22.00;19.00;;;;;;;;5109452;27;28798;-86
2022/03/07 09:56:20;;;;;;;;;21.00;21.00;;;;;;;;5109345;27;28331;-85
2022/03/07 09:58:45;;;;;;;;;17.75;17.75;;;;;;;;5109521;27;28280;-86
2022/03/07 10:01:13;;;;;;;;;18.00;16.25;;;;;;;;5108974;27;29457;-86
2022/03/07 10:03:38;;;;;;;;;21.20;17.80;;;;;;;;5108983;27;28440;-86
2022/03/07 10:06:11;;;;;;;;;18.80;18.80;;;;;;;;5109244;27;28724;-86
2022/03/07 10:08:36;;;;;;;;;18.00;18.00;;;;;;;;5109154;27;28424;-83
2022/03/07 10:11:06;;;;;;;;;18.00;18.00;;;;;;;;5111503;27;28685;-83
2022/03/07 10:13:32;;;;;;;;;23.60;22.60;;;;;;;;5112517;27;28305;-83
2022/03/07 10:16:01;;;;;;;;;19.50;19.50;;;;;;;;5112415;27;27910;-83
2022/03/07 10:18:27;;;;;;;;;17.00;16.00;;;;;;;;5112632;27;28343;-83
2022/03/07 10:20:54;;;;;;;;;16.00;16.00;;;;;;;;5112564;27;29561;-84
2022/03/07 10:23:19;;;;;;;;;13.20;13.20;;;;;;;;5112478;27;28549;-84
2022/03/07 10:25:45;;;;;;;;;15.80;15.20;;;;;;;;5112702;27;28397;-84
2022/03/07 10:28:11;;;;;;;;;14.00;14.00;;;;;;;;5112361;27;28311;-84
2022/03/07 10:30:37;;;;;;;;;16.00;16.00;;;;;;;;5112283;27;28477;-83
2022/03/07 10:33:03;;;;;;;;;15.80;11.80;;;;;;;;5112547;27;28394;-86
2022/03/07 10:35:30;;;;;;;;;13.00;13.00;;;;;;;;5112315;27;28325;-86
2022/03/07 10:38:06;;;;;;;;;19.20;16.20;;;;;;;;5125611;27;28251;-86
2022/03/07 10:40:32;;;;;;;;;16.00;14.50;;;;;;;;5112241;27;28432;-84
2022/03/07 10:43:00;;;;;;;;;14.75;14.75;;;;;;;;5112249;27;28385;-85
2022/03/07 10:45:26;;;;;;;;;15.20;15.20;;;;;;;;5112201;27;28326;-86
2022/03/07 10:47:52;;;;;;;;;15.50;15.50;;;;;;;;5112218;27;28556;-86
2022/03/07 10:50:19;;;;;;;;;14.00;14.00;;;;;;;;5117284;27;28554;-86
2022/03/07 10:52:44;;;;;;;;;14.00;14.00;;;;;;;;5132890;27;28316;-84
2022/03/07 10:55:10;;;;;;;;;19.00;14.33;;;;;;;;5132710;27;28378;-84
2022/03/07 10:57:37;;;;;;;;;15.00;15.00;;;;;;;;5132182;27;28423;-85
2022/03/07 11:00:13;;;;;;;;;13.20;11.80;;;;;;;;5132635;27;28454;-85
2022/03/07 11:02:43;;;;;;;;;19.00;16.25;;;;;;;;5132306;27;28442;-84
2022/03/07 11:05:09;;;;;;;;;18.80;14.80;;;;;;;;5132534;27;28459;-87
2022/03/07 11:07:37;;;;;;;;;15.75;14.75;;;;;;;;5119311;27;28500;-87
2022/03/07 11:10:02;;;;;;;;;13.75;13.75;;;;;;;;5104983;27;29446;-87
2022/03/07 11:12:27;;;;;;;;;14.75;14.75;;;;;;;;5108565;27;29029;-84
2022/03/07 11:14:56;;;;;;;;;16.00;16.00;;;;;;;;5099267;27;28477;-85
2022/03/07 11:17:21;;;;;;;;;16.50;14.00;;;;;;;;5115418;27;28507;-85
2022/03/07 11:19:46;;;;;;;;;15.33;15.33;;;;;;;;5090219;27;29885;-85
2022/03/07 11:22:12;;;;;;;;;19.33;17.67;;;;;;;;5110963;27;28609;-84
2022/03/07 11:24:38;;;;;;;;;15.25;15.25;;;;;;;;5093755;27;28530;-85
2022/03/07 11:27:03;;;;;;;;;14.20;14.20;;;;;;;;5117507;27;27869;-84
2022/03/07 11:29:37;;;;;;;;;16.20;14.60;;;;;;;;5075857;27;28479;-84
2022/03/07 11:32:03;;;;;;;;;16.00;16.00;;;;;;;;5096896;27;29012;-84
2022/03/07 11:34:29;;;;;;;;;20.50;19.50;;;;;;;;5090370;27;28495;-85
2022/03/07 11:36:54;;;;;;;;;21.50;20.50;;;;;;;;5110519;27;28453;-84
2022/03/07 11:39:34;;;;;;;;;15.50;15.50;;;;;;;;5110647;27;29525;-84
2022/03/07 11:42:07;;;;;;;;;18.20;15.20;;;;;;;;5110493;27;28487;-84
2022/03/07 11:44:32;;;;;;;;;16.25;16.25;;;;;;;;5110619;27;28614;-84
2022/03/07 11:47:06;;;;;;;;;16.00;13.25;;;;;;;;5110723;27;28543;-84
2022/03/07 11:49:32;;;;;;;;;18.20;18.20;;;;;;;;5110125;27;29924;-84
2022/03/07 11:52:02;;;;;;;;;16.00;15.25;;;;;;;;5110273;27;28425;-84
2022/03/07 11:54:27;;;;;;;;;16.40;14.40;;;;;;;;5110396;27;28469;-84
2022/03/07 11:57:04;;;;;;;;;17.50;16.00;;;;;;;;5110687;27;28752;-84
2022/03/07 11:59:30;;;;;;;;;15.80;14.20;;;;;;;;5109709;27;29265;-84
2022/03/07 12:01:55;;;;;;;;;20.00;20.00;;;;;;;;5110443;27;28879;-84
2022/03/07 12:04:20;;;;;;;;;20.33;17.33;;;;;;;;5110165;27;28533;-84
2022/03/07 12:06:47;;;;;;;;;18.50;17.00;;;;;;;;5109991;27;28328;-84
2022/03/07 12:09:35;;;;;;;;;21.25;18.00;;;;;;;;5110021;27;29715;-83
2022/03/07 12:12:02;;;;;;;;;17.80;16.80;;;;;;;;5110274;27;29002;-84
2022/03/07 12:14:28;;;;;;;;;14.00;12.50;;;;;;;;5110084;27;28483;-83
2022/03/07 12:16:53;;;;;;;;;20.00;18.00;;;;;;;;5110058;27;28354;-84
2022/03/07 12:19:19;;;;;;;;;18.33;18.00;;;;;;;;5109704;27;29383;-85
2022/03/07 12:21:45;;;;;;;;;17.75;17.75;;;;;;;;5109600;27;28758;-86
2022/03/07 12:24:15;;;;;;;;;14.80;14.80;;;;;;;;5110299;27;28400;-85
2022/03/07 12:26:44;;;;;;;;;14.25;14.25;;;;;;;;5110150;27;28415;-85
2022/03/07 12:29:09;;;;;;;;;16.00;16.00;;;;;;;;5109774;27;29016;-85
2022/03/07 12:31:34;;;;;;;;;16.00;14.33;;;;;;;;5109784;27;28450;-85
2022/03/07 12:34:00;;;;;;;;;13.75;13.75;;;;;;;;5108664;27;28400;-85
2022/03/07 12:36:25;;;;;;;;;18.75;16.00;;;;;;;;5109938;27;28472;-85
2022/03/07 12:38:52;;;;;;;;;11.50;11.50;;;;;;;;5109730;27;28639;-85
2022/03/07 12:41:28;;;;;;;;;13.50;11.75;;;;;;;;5109850;27;28470;-83
2022/03/07 12:43:53;;;;;;;;;15.60;15.60;;;;;;;;5109845;27;28618;-83
2022/03/07 12:46:18;;;;;;;;;18.00;16.00;;;;;;;;5121290;27;28524;-85
2022/03/07 12:48:45;;;;;;;;;16.25;14.50;;;;;;;;5130306;27;28411;-85
2022/03/07 12:51:12;;;;;;;;;16.00;16.00;;;;;;;;5125510;27;28436;-83
2022/03/07 12:53:47;;;;;;;;;15.75;15.75;;;;;;;;5121581;27;28324;-85
2022/03/07 12:56:13;;;;;;;;;14.60;14.60;;;;;;;;5130392;27;28624;-85
2022/03/07 12:58:48;;;;;;;;;18.00;16.00;;;;;;;;5109544;27;28648;-85
2022/03/07 13:01:13;;;;;;;;;15.60;15.60;;;;;;;;5109243;27;28514;-84
2022/03/07 13:03:38;;;;;;;;;16.75;15.00;;;;;;;;5111122;27;28448;-84
2022/03/07 13:06:04;;;;;;;;;15.00;15.00;;;;;;;;5129716;27;28552;-84
2022/03/07 13:08:29;;;;;;;;;16.67;16.67;;;;;;;;5129802;27;28500;-85
2022/03/07 13:10:54;;;;;;;;;15.00;15.00;;;;;;;;5112276;27;28711;-84
2022/03/07 13:13:20;;;;;;;;;16.00;14.00;;;;;;;;5108934;27;28385;-84
2022/03/07 13:15:45;;;;;;;;;16.00;15.00;;;;;;;;5109205;27;28905;-85
2022/03/07 13:18:10;;;;;;;;;16.75;16.00;;;;;;;;5109086;27;28392;-85
2022/03/07 13:20:36;;;;;;;;;15.50;15.50;;;;;;;;5109180;27;28390;-85
2022/03/07 13:23:02;;;;;;;;;16.00;15.25;;;;;;;;5109237;27;28541;-85
2022/03/07 13:25:42;;;;;;;;;17.00;15.40;;;;;;;;5109254;27;28490;-84
2022/03/07 13:28:09;;;;;;;;;20.00;17.00;;;;;;;;5107454;27;29559;-84
2022/03/07 13:30:34;;;;;;;;;16.50;16.50;;;;;;;;5109067;27;28433;-85
2022/03/07 13:33:04;;;;;;;;;14.50;14.50;;;;;;;;5109149;27;28299;-85
2022/03/07 13:35:29;;;;;;;;;14.80;13.00;;;;;;;;5108749;27;28548;-84
2022/03/07 13:37:56;;;;;;;;;15.00;15.00;;;;;;;;5108550;27;28462;-84
2022/03/07 13:40:24;;;;;;;;;13.60;13.60;;;;;;;;5108515;27;28487;-84
2022/03/07 13:42:51;;;;;;;;;19.00;17.75;;;;;;;;5108802;27;28524;-84
2022/03/07 13:45:18;;;;;;;;;14.75;13.25;;;;;;;;5110323;27;28586;-84
2022/03/07 13:47:44;;;;;;;;;17.25;15.75;;;;;;;;5111048;27;29886;-84
2022/03/07 13:50:10;;;;;;;;;16.00;16.00;;;;;;;;5112386;27;28604;-84
2022/03/07 13:52:37;;;;;;;;;18.20;17.00;;;;;;;;5112240;27;28853;-84
2022/03/07 13:55:04;;;;;;;;;20.00;15.50;;;;;;;;5112659;27;28546;-84
2022/03/07 13:57:31;;;;;;;;;13.20;13.20;;;;;;;;5112152;27;29877;-83
2022/03/07 13:59:58;;;;;;;;;16.75;16.75;;;;;;;;5112246;27;28511;-84
2022/03/07 14:02:23;;;;;;;;;17.50;17.50;;;;;;;;5112134;27;28465;-83
2022/03/07 14:04:51;;;;;;;;;13.67;13.67;;;;;;;;5112048;27;28563;-84
2022/03/07 14:07:19;;;;;;;;;14.40;13.00;;;;;;;;5107000;27;29548;-84
2022/03/07 14:09:51;;;;;;;;;15.60;13.60;;;;;;;;5112041;27;28802;-83